sensor_id;sensor_type;location;lat;lon;timestamp;pressure;altitude;pressure_sealevel;temperature;humidity
79129;BME280;68529;43.286;23.360;2023-04-29T00:02:06;99305.59;;;9.32;54.05
79129;BME280;68529;43.286;23.360;2023-04-29T00:04:32;99294.84;;;9.42;53.62
79129;BME280;68529;43.286;23.360;2023-04-29T00:06:58;99294.22;;;9.33;53.73
79129;BME280;68529;43.286;23.360;2023-04-29T00:09:23;99283.19;;;9.22;53.33
79129;BME280;68529;43.286;23.360;2023-04-29T00:11:48;99287.72;;;9.16;53.39
79129;BME280;68529;43.286;23.360;2023-04-29T00:14:14;99287.88;;;9.11;53.37
79129;BME280;68529;43.286;23.360;2023-04-29T00:16:40;99280.34;;;8.99;53.81
79129;BME280;68529;43.286;23.360;2023-04-29T00:19:06;99275.09;;;8.99;53.63
79129;BME280;68529;43.286;23.360;2023-04-29T00:21:31;99272.66;;;8.93;53.97
79129;BME280;68529;43.286;23.360;2023-04-29T00:23:57;99266.56;;;8.93;53.72
79129;BME280;68529;43.286;23.360;2023-04-29T00:26:23;99268.56;;;8.83;53.66
79129;BME280;68529;43.286;23.360;2023-04-29T00:28:48;99268.69;;;8.78;53.86
79129;BME280;68529;43.286;23.360;2023-04-29T00:31:13;99263.47;;;8.78;54.43
79129;BME280;68529;43.286;23.360;2023-04-29T00:33:39;99257.31;;;8.79;54.12
79129;BME280;68529;43.286;23.360;2023-04-29T00:36:05;99252.78;;;8.86;54.25
79129;BME280;68529;43.286;23.360;2023-04-29T00:38:31;99255.44;;;8.85;54.13
79129;BME280;68529;43.286;23.360;2023-04-29T00:40:56;99246.75;;;8.83;54.42
79129;BME280;68529;43.286;23.360;2023-04-29T00:43:22;99251.16;;;8.82;54.28
79129;BME280;68529;43.286;23.360;2023-04-29T00:45:48;99259.81;;;8.84;54.55
79129;BME280;68529;43.286;23.360;2023-04-29T00:48:14;99251.78;;;8.90;54.25
79129;BME280;68529;43.286;23.360;2023-04-29T00:50:40;99258.69;;;8.62;54.59
79129;BME280;68529;43.286;23.360;2023-04-29T00:53:07;99258.03;;;8.54;54.54
79129;BME280;68529;43.286;23.360;2023-04-29T00:55:32;99263.34;;;8.51;54.70
79129;BME280;68529;43.286;23.360;2023-04-29T00:57:59;99257.00;;;8.59;54.80
79129;BME280;68529;43.286;23.360;2023-04-29T01:00:27;99250.22;;;8.85;54.69
79129;BME280;68529;43.286;23.360;2023-04-29T01:02:53;99250.72;;;8.97;54.38
79129;BME280;68529;43.286;23.360;2023-04-29T01:05:21;99251.41;;;9.04;54.39
79129;BME280;68529;43.286;23.360;2023-04-29T01:11:07;99250.53;;;9.34;54.26
79129;BME280;68529;43.286;23.360;2023-04-29T01:13:41;99249.84;;;9.27;53.98
79129;BME280;68529;43.286;23.360;2023-04-29T01:16:10;99245.38;;;9.31;54.49
79129;BME280;68529;43.286;23.360;2023-04-29T01:18:53;99243.44;;;9.38;54.49
79129;BME280;68529;43.286;23.360;2023-04-29T01:21:19;99253.19;;;9.32;53.92
79129;BME280;68529;43.286;23.360;2023-04-29T01:23:45;99243.56;;;9.33;53.83
79129;BME280;68529;43.286;23.360;2023-04-29T01:26:10;99245.16;;;9.08;53.88
79129;BME280;68529;43.286;23.360;2023-04-29T01:28:55;99241.25;;;8.93;53.75
79129;BME280;68529;43.286;23.360;2023-04-29T01:31:32;99238.56;;;8.95;54.29
79129;BME280;68529;43.286;23.360;2023-04-29T01:34:09;99240.09;;;9.02;54.10
79129;BME280;68529;43.286;23.360;2023-04-29T01:39:32;99235.72;;;9.02;54.35
79129;BME280;68529;43.286;23.360;2023-04-29T01:42:06;99241.91;;;9.00;54.34
79129;BME280;68529;43.286;23.360;2023-04-29T01:44:36;99228.03;;;8.96;54.20
79129;BME280;68529;43.286;23.360;2023-04-29T01:47:02;99224.56;;;8.96;54.47
79129;BME280;68529;43.286;23.360;2023-04-29T01:49:28;99219.06;;;9.05;54.55
79129;BME280;68529;43.286;23.360;2023-04-29T01:51:54;99232.34;;;8.99;54.38
79129;BME280;68529;43.286;23.360;2023-04-29T01:54:20;99228.69;;;9.04;54.87
79129;BME280;68529;43.286;23.360;2023-04-29T01:56:49;99225.06;;;9.08;54.27
79129;BME280;68529;43.286;23.360;2023-04-29T01:59:15;99229.41;;;9.09;54.29
79129;BME280;68529;43.286;23.360;2023-04-29T02:01:41;99238.50;;;8.96;54.02
79129;BME280;68529;43.286;23.360;2023-04-29T02:04:06;99234.44;;;8.86;54.36
79129;BME280;68529;43.286;23.360;2023-04-29T02:06:32;99242.34;;;8.85;54.10
79129;BME280;68529;43.286;23.360;2023-04-29T02:08:57;99229.44;;;8.77;54.62
79129;BME280;68529;43.286;23.360;2023-04-29T02:11:23;99232.22;;;8.71;54.37
79129;BME280;68529;43.286;23.360;2023-04-29T02:13:48;99231.66;;;8.60;54.46
79129;BME280;68529;43.286;23.360;2023-04-29T02:16:14;99216.06;;;8.57;54.51
79129;BME280;68529;43.286;23.360;2023-04-29T02:18:40;99223.78;;;8.61;54.62
79129;BME280;68529;43.286;23.360;2023-04-29T02:21:06;99228.16;;;8.61;54.63
79129;BME280;68529;43.286;23.360;2023-04-29T02:23:32;99231.63;;;8.61;54.73
79129;BME280;68529;43.286;23.360;2023-04-29T02:25:58;99230.75;;;8.62;54.68
79129;BME280;68529;43.286;23.360;2023-04-29T02:28:24;99236.66;;;8.69;54.90
79129;BME280;68529;43.286;23.360;2023-04-29T02:30:49;99238.31;;;8.73;54.41
79129;BME280;68529;43.286;23.360;2023-04-29T02:33:16;99234.84;;;8.71;54.79
79129;BME280;68529;43.286;23.360;2023-04-29T02:35:42;99241.72;;;8.75;54.73
79129;BME280;68529;43.286;23.360;2023-04-29T02:38:08;99247.13;;;8.69;54.42
79129;BME280;68529;43.286;23.360;2023-04-29T02:40:33;99239.63;;;8.55;54.69
79129;BME280;68529;43.286;23.360;2023-04-29T02:42:59;99245.09;;;8.48;54.76
79129;BME280;68529;43.286;23.360;2023-04-29T02:45:25;99248.66;;;8.45;55.36
79129;BME280;68529;43.286;23.360;2023-04-29T02:47:51;99236.22;;;8.53;55.52
79129;BME280;68529;43.286;23.360;2023-04-29T02:50:16;99230.38;;;8.74;55.14
79129;BME280;68529;43.286;23.360;2023-04-29T02:52:41;99234.41;;;8.88;54.78
79129;BME280;68529;43.286;23.360;2023-04-29T02:55:07;99227.31;;;8.91;54.63
79129;BME280;68529;43.286;23.360;2023-04-29T02:57:33;99231.50;;;8.98;54.53
79129;BME280;68529;43.286;23.360;2023-04-29T02:59:59;99229.75;;;8.97;54.62
79129;BME280;68529;43.286;23.360;2023-04-29T03:02:24;99228.16;;;8.93;54.66
79129;BME280;68529;43.286;23.360;2023-04-29T03:04:50;99227.53;;;8.84;54.88
79129;BME280;68529;43.286;23.360;2023-04-29T03:07:16;99241.72;;;8.75;55.03
79129;BME280;68529;43.286;23.360;2023-04-29T03:09:42;99239.19;;;8.72;54.78
79129;BME280;68529;43.286;23.360;2023-04-29T03:12:07;99236.72;;;8.67;54.61
79129;BME280;68529;43.286;23.360;2023-04-29T03:14:33;99235.97;;;8.62;54.63
79129;BME280;68529;43.286;23.360;2023-04-29T03:16:58;99232.53;;;8.60;54.30
79129;BME280;68529;43.286;23.360;2023-04-29T03:19:24;99239.41;;;8.64;54.61
79129;BME280;68529;43.286;23.360;2023-04-29T03:21:49;99236.94;;;8.58;54.45
79129;BME280;68529;43.286;23.360;2023-04-29T03:24:14;99246.69;;;8.53;54.88
79129;BME280;68529;43.286;23.360;2023-04-29T03:26:40;99258.13;;;8.49;54.85
79129;BME280;68529;43.286;23.360;2023-04-29T03:29:07;99263.25;;;8.54;55.41
79129;BME280;68529;43.286;23.360;2023-04-29T03:31:32;99259.78;;;8.52;55.10
79129;BME280;68529;43.286;23.360;2023-04-29T03:33:58;99255.56;;;8.48;55.85
79129;BME280;68529;43.286;23.360;2023-04-29T03:36:24;99252.88;;;8.49;55.75
79129;BME280;68529;43.286;23.360;2023-04-29T03:38:49;99261.69;;;8.47;55.04
79129;BME280;68529;43.286;23.360;2023-04-29T03:41:15;99261.81;;;8.41;55.60
79129;BME280;68529;43.286;23.360;2023-04-29T03:43:40;99265.22;;;8.46;55.99
79129;BME280;68529;43.286;23.360;2023-04-29T03:46:08;99257.16;;;8.53;55.73
79129;BME280;68529;43.286;23.360;2023-04-29T03:48:34;99261.31;;;8.60;55.34
79129;BME280;68529;43.286;23.360;2023-04-29T03:50:59;99262.03;;;8.65;55.57
79129;BME280;68529;43.286;23.360;2023-04-29T03:53:25;99258.53;;;8.66;55.45
79129;BME280;68529;43.286;23.360;2023-04-29T03:55:50;99243.84;;;8.61;54.89
79129;BME280;68529;43.286;23.360;2023-04-29T03:58:16;99249.16;;;8.58;55.65
79129;BME280;68529;43.286;23.360;2023-04-29T04:00:41;99252.59;;;8.60;55.79
79129;BME280;68529;43.286;23.360;2023-04-29T04:03:07;99253.94;;;8.74;55.86
79129;BME280;68529;43.286;23.360;2023-04-29T04:05:33;99250.31;;;8.80;55.26
79129;BME280;68529;43.286;23.360;2023-04-29T04:07:58;99251.97;;;8.84;55.45
79129;BME280;68529;43.286;23.360;2023-04-29T04:10:25;99241.56;;;8.81;55.24
79129;BME280;68529;43.286;23.360;2023-04-29T04:12:50;99250.16;;;8.86;55.53
79129;BME280;68529;43.286;23.360;2023-04-29T04:15:16;99241.25;;;8.92;55.41
79129;BME280;68529;43.286;23.360;2023-04-29T04:17:41;99241.78;;;9.04;55.09
79129;BME280;68529;43.286;23.360;2023-04-29T04:20:07;99244.41;;;9.04;55.61
79129;BME280;68529;43.286;23.360;2023-04-29T04:22:32;99249.66;;;9.04;55.63
79129;BME280;68529;43.286;23.360;2023-04-29T04:24:58;99257.31;;;9.10;55.62
79129;BME280;68529;43.286;23.360;2023-04-29T04:27:23;99250.13;;;9.18;55.51
79129;BME280;68529;43.286;23.360;2023-04-29T04:29:54;99241.97;;;9.27;55.35
79129;BME280;68529;43.286;23.360;2023-04-29T04:32:23;99246.69;;;9.46;55.18
79129;BME280;68529;43.286;23.360;2023-04-29T04:34:49;99241.28;;;9.52;55.74
79129;BME280;68529;43.286;23.360;2023-04-29T04:37:14;99231.25;;;9.64;55.05
79129;BME280;68529;43.286;23.360;2023-04-29T04:39:40;99227.63;;;9.68;55.00
79129;BME280;68529;43.286;23.360;2023-04-29T04:42:06;99231.50;;;9.84;55.06
79129;BME280;68529;43.286;23.360;2023-04-29T04:44:31;99226.84;;;9.92;54.78
79129;BME280;68529;43.286;23.360;2023-04-29T04:46:57;99226.47;;;10.05;54.69
79129;BME280;68529;43.286;23.360;2023-04-29T04:49:25;99226.09;;;10.17;54.36
79129;BME280;68529;43.286;23.360;2023-04-29T04:51:51;99225.72;;;10.27;54.65
79129;BME280;68529;43.286;23.360;2023-04-29T04:54:17;99234.47;;;10.28;54.27
79129;BME280;68529;43.286;23.360;2023-04-29T04:56:42;99231.66;;;10.06;54.62
79129;BME280;68529;43.286;23.360;2023-04-29T04:59:08;99241.16;;;10.10;55.20
79129;BME280;68529;43.286;23.360;2023-04-29T05:01:33;99236.56;;;10.17;55.06
79129;BME280;68529;43.286;23.360;2023-04-29T05:03:58;99231.22;;;10.20;55.30
79129;BME280;68529;43.286;23.360;2023-04-29T05:06:25;99255.00;;;9.60;57.01
79129;BME280;68529;43.286;23.360;2023-04-29T05:08:50;99255.22;;;9.52;57.68
79129;BME280;68529;43.286;23.360;2023-04-29T05:11:20;99254.25;;;9.84;57.08
79129;BME280;68529;43.286;23.360;2023-04-29T05:13:46;99253.34;;;10.11;56.53
79129;BME280;68529;43.286;23.360;2023-04-29T05:16:12;99255.22;;;10.35;56.23
79129;BME280;68529;43.286;23.360;2023-04-29T05:18:37;99252.88;;;10.52;56.13
79129;BME280;68529;43.286;23.360;2023-04-29T05:21:03;99250.53;;;10.70;56.02
79129;BME280;68529;43.286;23.360;2023-04-29T05:23:28;99256.16;;;10.84;55.92
79129;BME280;68529;43.286;23.360;2023-04-29T05:25:54;99258.28;;;10.97;55.73
79129;BME280;68529;43.286;23.360;2023-04-29T05:28:20;99268.78;;;10.97;55.23
79129;BME280;68529;43.286;23.360;2023-04-29T05:30:45;99265.91;;;11.05;55.50
79129;BME280;68529;43.286;23.360;2023-04-29T05:33:11;99271.75;;;11.13;55.06
79129;BME280;68529;43.286;23.360;2023-04-29T05:35:37;99259.69;;;11.07;54.91
79129;BME280;68529;43.286;23.360;2023-04-29T05:38:02;99265.09;;;10.53;55.88
79129;BME280;68529;43.286;23.360;2023-04-29T05:40:28;99267.78;;;10.52;55.37
79129;BME280;68529;43.286;23.360;2023-04-29T05:42:53;99271.41;;;10.48;54.58
79129;BME280;68529;43.286;23.360;2023-04-29T05:45:19;99272.66;;;10.63;54.00
79129;BME280;68529;43.286;23.360;2023-04-29T05:47:44;99269.56;;;11.01;53.84
79129;BME280;68529;43.286;23.360;2023-04-29T05:50:10;99273.25;;;11.43;52.50
79129;BME280;68529;43.286;23.360;2023-04-29T05:52:36;99279.03;;;11.76;52.43
79129;BME280;68529;43.286;23.360;2023-04-29T05:55:01;99277.47;;;11.94;51.99
79129;BME280;68529;43.286;23.360;2023-04-29T05:57:27;99270.91;;;12.04;51.32
79129;BME280;68529;43.286;23.360;2023-04-29T05:59:52;99270.44;;;12.16;50.87
79129;BME280;68529;43.286;23.360;2023-04-29T06:02:19;99268.91;;;12.52;50.62
79129;BME280;68529;43.286;23.360;2023-04-29T06:04:45;99269.03;;;12.49;50.12
79129;BME280;68529;43.286;23.360;2023-04-29T06:07:12;99264.59;;;12.71;50.33
79129;BME280;68529;43.286;23.360;2023-04-29T06:09:37;99271.50;;;12.94;49.91
79129;BME280;68529;43.286;23.360;2023-04-29T06:12:03;99264.97;;;13.03;49.85
79129;BME280;68529;43.286;23.360;2023-04-29T06:14:29;99248.50;;;13.18;50.10
79129;BME280;68529;43.286;23.360;2023-04-29T06:16:54;99252.16;;;13.34;49.57
79129;BME280;68529;43.286;23.360;2023-04-29T06:19:20;99261.66;;;13.38;49.56
79129;BME280;68529;43.286;23.360;2023-04-29T06:21:45;99259.88;;;13.57;49.52
79129;BME280;68529;43.286;23.360;2023-04-29T06:24:11;99256.38;;;13.75;48.13
79129;BME280;68529;43.286;23.360;2023-04-29T06:26:36;99251.50;;;13.85;47.73
79129;BME280;68529;43.286;23.360;2023-04-29T06:29:02;99246.75;;;13.93;48.00
79129;BME280;68529;43.286;23.360;2023-04-29T06:31:27;99242.72;;;14.03;47.59
79129;BME280;68529;43.286;23.360;2023-04-29T06:33:53;99243.50;;;14.05;48.05
79129;BME280;68529;43.286;23.360;2023-04-29T06:36:19;99249.25;;;14.13;47.68
79129;BME280;68529;43.286;23.360;2023-04-29T06:38:44;99248.91;;;14.21;47.24
79129;BME280;68529;43.286;23.360;2023-04-29T06:41:10;99238.41;;;14.19;46.92
79129;BME280;68529;43.286;23.360;2023-04-29T06:43:35;99249.88;;;14.18;47.36
79129;BME280;68529;43.286;23.360;2023-04-29T06:46:01;99256.50;;;14.27;47.67
79129;BME280;68529;43.286;23.360;2023-04-29T06:48:26;99253.31;;;14.39;47.67
79129;BME280;68529;43.286;23.360;2023-04-29T06:50:53;99254.03;;;14.42;46.76
79129;BME280;68529;43.286;23.360;2023-04-29T06:53:19;99253.31;;;14.39;46.39
79129;BME280;68529;43.286;23.360;2023-04-29T06:55:46;99249.19;;;14.33;46.67
79129;BME280;68529;43.286;23.360;2023-04-29T06:58:12;99249.59;;;14.43;46.84
79129;BME280;68529;43.286;23.360;2023-04-29T07:00:39;99257.81;;;14.18;46.85
79129;BME280;68529;43.286;23.360;2023-04-29T07:03:05;99254.81;;;14.26;47.17
79129;BME280;68529;43.286;23.360;2023-04-29T07:05:30;99251.84;;;14.15;47.01
79129;BME280;68529;43.286;23.360;2023-04-29T07:07:56;99246.63;;;14.13;47.37
79129;BME280;68529;43.286;23.360;2023-04-29T07:10:21;99241.75;;;14.23;47.30
79129;BME280;68529;43.286;23.360;2023-04-29T07:12:47;99241.88;;;14.38;47.03
79129;BME280;68529;43.286;23.360;2023-04-29T07:15:12;99233.41;;;14.49;47.19
79129;BME280;68529;43.286;23.360;2023-04-29T07:17:38;99233.81;;;14.58;47.25
79129;BME280;68529;43.286;23.360;2023-04-29T07:20:04;99236.59;;;14.73;46.96
79129;BME280;68529;43.286;23.360;2023-04-29T07:22:29;99232.22;;;14.89;46.92
79129;BME280;68529;43.286;23.360;2023-04-29T07:24:55;99234.69;;;15.09;46.40
79129;BME280;68529;43.286;23.360;2023-04-29T07:27:21;99227.53;;;15.11;46.55
79129;BME280;68529;43.286;23.360;2023-04-29T07:29:47;99236.31;;;15.11;47.17
79129;BME280;68529;43.286;23.360;2023-04-29T07:32:14;99237.19;;;15.28;46.84
79129;BME280;68529;43.286;23.360;2023-04-29T07:34:40;99239.91;;;15.43;46.28
79129;BME280;68529;43.286;23.360;2023-04-29T07:37:05;99241.84;;;15.40;45.67
79129;BME280;68529;43.286;23.360;2023-04-29T07:39:30;99237.94;;;15.47;45.59
79129;BME280;68529;43.286;23.360;2023-04-29T07:41:56;99236.41;;;15.43;45.67
79129;BME280;68529;43.286;23.360;2023-04-29T07:44:21;99245.56;;;15.53;45.16
79129;BME280;68529;43.286;23.360;2023-04-29T07:46:47;99236.19;;;15.63;43.82
79129;BME280;68529;43.286;23.360;2023-04-29T07:49:12;99245.44;;;15.71;43.29
79129;BME280;68529;43.286;23.360;2023-04-29T07:51:41;99229.94;;;15.64;42.39
79129;BME280;68529;43.286;23.360;2023-04-29T07:54:08;99227.47;;;15.61;42.19
79129;BME280;68529;43.286;23.360;2023-04-29T07:56:33;99229.78;;;15.67;42.50
79129;BME280;68529;43.286;23.360;2023-04-29T07:58:59;99231.00;;;15.77;43.14
79129;BME280;68529;43.286;23.360;2023-04-29T08:01:25;99235.69;;;15.88;43.60
79129;BME280;68529;43.286;23.360;2023-04-29T08:03:51;99234.81;;;15.87;43.64
79129;BME280;68529;43.286;23.360;2023-04-29T08:06:16;99231.75;;;15.95;43.45
79129;BME280;68529;43.286;23.360;2023-04-29T08:08:45;99228.59;;;15.88;43.04
79129;BME280;68529;43.286;23.360;2023-04-29T08:11:17;99226.63;;;15.92;41.91
79129;BME280;68529;43.286;23.360;2023-04-29T08:13:44;99228.22;;;15.94;41.47
79129;BME280;68529;43.286;23.360;2023-04-29T08:16:10;99226.38;;;15.65;41.89
79129;BME280;68529;43.286;23.360;2023-04-29T08:18:35;99223.72;;;15.81;42.45
79129;BME280;68529;43.286;23.360;2023-04-29T08:21:01;99230.97;;;15.93;43.21
79129;BME280;68529;43.286;23.360;2023-04-29T08:23:26;99231.13;;;16.05;42.29
79129;BME280;68529;43.286;23.360;2023-04-29T08:25:52;99233.59;;;16.08;43.44
79129;BME280;68529;43.286;23.360;2023-04-29T08:28:19;99230.19;;;16.06;43.22
79129;BME280;68529;43.286;23.360;2023-04-29T08:30:44;99228.31;;;16.08;43.24
79129;BME280;68529;43.286;23.360;2023-04-29T08:33:10;99221.47;;;16.20;42.48
79129;BME280;68529;43.286;23.360;2023-04-29T08:35:37;99232.22;;;16.33;42.76
79129;BME280;68529;43.286;23.360;2023-04-29T08:38:06;99227.16;;;16.44;42.26
79129;BME280;68529;43.286;23.360;2023-04-29T08:40:35;99224.91;;;16.52;42.43
79129;BME280;68529;43.286;23.360;2023-04-29T08:43:05;99223.47;;;16.76;42.60
79129;BME280;68529;43.286;23.360;2023-04-29T08:45:31;99222.94;;;16.99;41.81
79129;BME280;68529;43.286;23.360;2023-04-29T08:47:59;99223.63;;;17.03;41.57
79129;BME280;68529;43.286;23.360;2023-04-29T08:50:27;99232.81;;;17.11;40.57
79129;BME280;68529;43.286;23.360;2023-04-29T08:52:52;99233.22;;;17.33;40.33
79129;BME280;68529;43.286;23.360;2023-04-29T08:55:19;99229.09;;;17.42;41.03
79129;BME280;68529;43.286;23.360;2023-04-29T08:57:45;99221.53;;;17.22;39.89
79129;BME280;68529;43.286;23.360;2023-04-29T09:00:14;99224.75;;;17.27;41.24
79129;BME280;68529;43.286;23.360;2023-04-29T09:02:44;99220.13;;;17.44;40.75
79129;BME280;68529;43.286;23.360;2023-04-29T09:05:10;99217.47;;;17.59;40.66
79129;BME280;68529;43.286;23.360;2023-04-29T09:07:37;99209.41;;;17.60;39.72
79129;BME280;68529;43.286;23.360;2023-04-29T09:10:04;99209.78;;;17.54;40.18
79129;BME280;68529;43.286;23.360;2023-04-29T09:12:30;99213.47;;;17.52;40.25
79129;BME280;68529;43.286;23.360;2023-04-29T09:14:56;99215.19;;;17.53;41.26
79129;BME280;68529;43.286;23.360;2023-04-29T09:17:57;99209.88;;;17.67;40.66
79129;BME280;68529;43.286;23.360;2023-04-29T09:22:52;99217.00;;;17.93;40.97
79129;BME280;68529;43.286;23.360;2023-04-29T09:25:19;99219.06;;;18.02;40.68
79129;BME280;68529;43.286;23.360;2023-04-29T09:27:45;99218.78;;;18.07;40.72
79129;BME280;68529;43.286;23.360;2023-04-29T09:30:10;99207.75;;;18.13;40.75
79129;BME280;68529;43.286;23.360;2023-04-29T09:32:37;99213.16;;;18.11;40.48
79129;BME280;68529;43.286;23.360;2023-04-29T09:35:23;99204.34;;;18.11;40.79
79129;BME280;68529;43.286;23.360;2023-04-29T09:38:11;99200.16;;;18.07;40.63
79129;BME280;68529;43.286;23.360;2023-04-29T09:40:37;99202.19;;;18.03;40.46
79129;BME280;68529;43.286;23.360;2023-04-29T09:43:10;99191.75;;;18.00;40.64
79129;BME280;68529;43.286;23.360;2023-04-29T09:45:39;99204.88;;;17.89;40.38
79129;BME280;68529;43.286;23.360;2023-04-29T09:48:07;99199.97;;;17.83;41.24
79129;BME280;68529;43.286;23.360;2023-04-29T09:50:34;99201.09;;;17.79;41.45
79129;BME280;68529;43.286;23.360;2023-04-29T09:53:04;99196.09;;;17.74;41.06
79129;BME280;68529;43.286;23.360;2023-04-29T09:55:31;99205.00;;;17.73;41.20
79129;BME280;68529;43.286;23.360;2023-04-29T09:57:57;99199.06;;;17.70;40.89
79129;BME280;68529;43.286;23.360;2023-04-29T10:00:23;99203.72;;;17.66;40.62
79129;BME280;68529;43.286;23.360;2023-04-29T10:02:50;99196.88;;;17.62;41.00
79129;BME280;68529;43.286;23.360;2023-04-29T10:05:18;99201.75;;;17.56;40.77
79129;BME280;68529;43.286;23.360;2023-04-29T10:07:45;99195.25;;;17.45;40.95
79129;BME280;68529;43.286;23.360;2023-04-29T10:10:12;99196.50;;;17.40;41.13
79129;BME280;68529;43.286;23.360;2023-04-29T10:12:39;99187.47;;;17.28;41.41
79129;BME280;68529;43.286;23.360;2023-04-29T10:17:48;99197.34;;;17.12;42.12
79129;BME280;68529;43.286;23.360;2023-04-29T10:20:14;99195.44;;;17.00;42.17
79129;BME280;68529;43.286;23.360;2023-04-29T10:22:50;99200.38;;;16.92;42.62
79129;BME280;68529;43.286;23.360;2023-04-29T10:25:18;99199.97;;;16.84;43.38
79129;BME280;68529;43.286;23.360;2023-04-29T10:27:44;99205.75;;;16.76;44.05
79129;BME280;68529;43.286;23.360;2023-04-29T10:30:15;99202.59;;;16.70;44.79
79129;BME280;68529;43.286;23.360;2023-04-29T10:32:45;99201.28;;;16.63;44.69
79129;BME280;68529;43.286;23.360;2023-04-29T10:35:12;99199.75;;;16.59;44.36
79129;BME280;68529;43.286;23.360;2023-04-29T10:37:44;99200.19;;;16.51;44.30
79129;BME280;68529;43.286;23.360;2023-04-29T10:40:30;99202.06;;;16.49;44.40
79129;BME280;68529;43.286;23.360;2023-04-29T10:43:01;99194.19;;;16.48;44.51
79129;BME280;68529;43.286;23.360;2023-04-29T10:45:31;99191.03;;;16.57;44.51
79129;BME280;68529;43.286;23.360;2023-04-29T10:50:28;99190.50;;;16.66;44.27
79129;BME280;68529;43.286;23.360;2023-04-29T10:52:57;99190.22;;;16.70;43.86
79129;BME280;68529;43.286;23.360;2023-04-29T10:55:23;99186.34;;;16.76;44.41
79129;BME280;68529;43.286;23.360;2023-04-29T10:57:52;99185.09;;;16.81;44.04
79129;BME280;68529;43.286;23.360;2023-04-29T11:00:21;99185.03;;;16.83;43.61
79129;BME280;68529;43.286;23.360;2023-04-29T11:02:47;99187.22;;;16.91;44.21
79129;BME280;68529;43.286;23.360;2023-04-29T11:05:13;99182.97;;;17.02;44.05
79129;BME280;68529;43.286;23.360;2023-04-29T11:07:38;99177.16;;;17.10;43.47
79129;BME280;68529;43.286;23.360;2023-04-29T11:10:05;99177.72;;;17.15;42.54
79129;BME280;68529;43.286;23.360;2023-04-29T11:12:31;99172.78;;;17.23;42.81
79129;BME280;68529;43.286;23.360;2023-04-29T11:14:57;99179.25;;;17.33;42.90
79129;BME280;68529;43.286;23.360;2023-04-29T11:17:34;99174.38;;;17.39;42.20
79129;BME280;68529;43.286;23.360;2023-04-29T11:20:10;99174.56;;;17.36;43.00
79129;BME280;68529;43.286;23.360;2023-04-29T11:22:37;99168.81;;;17.44;42.82
79129;BME280;68529;43.286;23.360;2023-04-29T11:25:05;99177.72;;;17.57;43.00
79129;BME280;68529;43.286;23.360;2023-04-29T11:27:39;99180.84;;;17.64;42.28
79129;BME280;68529;43.286;23.360;2023-04-29T11:30:06;99175.59;;;17.76;41.91
79129;BME280;68529;43.286;23.360;2023-04-29T11:32:34;99164.88;;;17.78;42.13
79129;BME280;68529;43.286;23.360;2023-04-29T11:35:14;99168.44;;;17.91;41.56
79129;BME280;68529;43.286;23.360;2023-04-29T11:37:41;99163.78;;;17.94;41.61
79129;BME280;68529;43.286;23.360;2023-04-29T11:40:08;99161.41;;;17.90;40.96
79129;BME280;68529;43.286;23.360;2023-04-29T11:42:34;99163.78;;;17.94;42.05
79129;BME280;68529;43.286;23.360;2023-04-29T11:45:03;99163.91;;;18.06;41.80
79129;BME280;68529;43.286;23.360;2023-04-29T11:47:29;99155.97;;;18.18;41.24
79129;BME280;68529;43.286;23.360;2023-04-29T11:50:02;99158.97;;;18.26;41.18
79129;BME280;68529;43.286;23.360;2023-04-29T11:52:28;99153.34;;;18.31;41.17
79129;BME280;68529;43.286;23.360;2023-04-29T11:54:54;99150.78;;;18.29;41.86
79129;BME280;68529;43.286;23.360;2023-04-29T11:57:19;99153.84;;;18.23;41.25
79129;BME280;68529;43.286;23.360;2023-04-29T11:59:45;99148.31;;;18.14;41.39
79129;BME280;68529;43.286;23.360;2023-04-29T12:02:11;99142.00;;;18.02;41.80
79129;BME280;68529;43.286;23.360;2023-04-29T12:04:47;99145.63;;;17.74;42.84
79129;BME280;68529;43.286;23.360;2023-04-29T12:07:16;99146.34;;;17.76;42.65
79129;BME280;68529;43.286;23.360;2023-04-29T12:09:45;99145.19;;;17.25;41.49
79129;BME280;68529;43.286;23.360;2023-04-29T12:12:12;99149.59;;;16.98;42.14
79129;BME280;68529;43.286;23.360;2023-04-29T12:14:39;99135.94;;;16.90;43.05
79129;BME280;68529;43.286;23.360;2023-04-29T12:17:05;99139.81;;;16.70;42.68
79129;BME280;68529;43.286;23.360;2023-04-29T12:19:31;99138.19;;;16.68;43.31
79129;BME280;68529;43.286;23.360;2023-04-29T12:22:02;99132.72;;;16.71;42.98
79129;BME280;68529;43.286;23.360;2023-04-29T12:24:27;99131.59;;;16.75;43.25
79129;BME280;68529;43.286;23.360;2023-04-29T12:26:56;99136.22;;;16.85;44.47
79129;BME280;68529;43.286;23.360;2023-04-29T12:29:24;99136.13;;;17.01;43.55
79129;BME280;68529;43.286;23.360;2023-04-29T12:31:50;99141.44;;;17.15;43.71
79129;BME280;68529;43.286;23.360;2023-04-29T12:34:15;99135.63;;;17.23;43.84
79129;BME280;68529;43.286;23.360;2023-04-29T12:36:41;99124.81;;;17.26;43.50
79129;BME280;68529;43.286;23.360;2023-04-29T12:39:09;99129.50;;;17.22;44.63
79129;BME280;68529;43.286;23.360;2023-04-29T12:41:39;99123.97;;;17.25;44.08
79129;BME280;68529;43.286;23.360;2023-04-29T12:44:04;99120.38;;;17.12;43.94
79129;BME280;68529;43.286;23.360;2023-04-29T12:46:48;99124.38;;;16.91;43.96
79129;BME280;68529;43.286;23.360;2023-04-29T12:49:13;99125.88;;;16.67;43.78
79129;BME280;68529;43.286;23.360;2023-04-29T12:51:42;99127.97;;;16.76;44.61
79129;BME280;68529;43.286;23.360;2023-04-29T12:54:08;99127.41;;;16.71;44.52
79129;BME280;68529;43.286;23.360;2023-04-29T12:56:33;99124.66;;;16.86;45.42
79129;BME280;68529;43.286;23.360;2023-04-29T12:59:05;99121.25;;;16.99;44.89
79129;BME280;68529;43.286;23.360;2023-04-29T13:01:31;99118.22;;;17.05;44.41
79129;BME280;68529;43.286;23.360;2023-04-29T13:03:57;99126.66;;;17.11;44.88
79129;BME280;68529;43.286;23.360;2023-04-29T13:06:22;99119.84;;;16.79;44.28